createdAt,value
2019-03-28T00:00:23.166Z,23.7
2019-03-28T00:01:12.346Z,23.6
2019-03-28T00:02:03.608Z,23.4
2019-03-28T00:02:52.718Z,23.3
2019-03-28T00:03:42.800Z,23.2
2019-03-28T00:04:32.296Z,23.1
2019-03-28T00:05:22.965Z,23
2019-03-28T00:06:13.548Z,22.9
2019-03-28T00:07:02.501Z,22.9
2019-03-28T00:07:53.373Z,22.9
2019-03-28T00:08:42.602Z,22.8
2019-03-28T00:09:33.786Z,22.8
2019-03-28T00:10:24.108Z,22.6
2019-03-28T00:11:13.730Z,22.4
2019-03-28T00:12:04.435Z,22.3
2019-03-28T00:12:53.743Z,22.2
2019-03-28T00:13:43.788Z,22.1
2019-03-28T00:14:34.164Z,22
2019-03-28T00:15:23.630Z,21.9
2019-03-28T00:16:13.987Z,21.8
2019-03-28T00:17:03.022Z,21.8
2019-03-28T00:17:53.705Z,21.8
2019-03-28T00:18:43.789Z,21.8
2019-03-28T00:19:33.006Z,21.7
2019-03-28T00:20:24.790Z,21.6
2019-03-28T00:21:12.822Z,21.6
2019-03-28T00:22:07.224Z,21.4
2019-03-28T00:22:54.048Z,21.3
2019-03-28T00:23:44.593Z,21.3
2019-03-28T00:25:23.626Z,21.1
2019-03-28T00:26:14.539Z,21
2019-03-28T00:27:04.970Z,20.9
2019-03-28T00:27:55.137Z,20.9
2019-03-28T00:28:45.462Z,20.9
2019-03-28T00:29:35.342Z,20.9
2019-03-28T00:30:25.552Z,20.8
2019-03-28T00:31:15.687Z,20.7
2019-03-28T00:32:05.759Z,20.6
2019-03-28T00:32:55.477Z,20.6
2019-03-28T00:33:44.342Z,20.5
2019-03-28T00:34:35.169Z,20.4
2019-03-28T00:35:24.914Z,20.4
2019-03-28T00:36:15.226Z,20.3
2019-03-28T00:37:09.589Z,20.3
2019-03-28T00:37:56.094Z,20.1
2019-03-28T00:38:45.674Z,20.1
2019-03-28T00:39:35.094Z,20
2019-03-28T00:40:26.280Z,20
2019-03-28T00:41:15.325Z,20
2019-03-28T00:42:04.529Z,20
2019-03-28T00:42:56.164Z,20
2019-03-28T00:43:45.229Z,20
2019-03-28T00:44:36.008Z,20.1
2019-03-28T00:45:25.717Z,20.1
2019-03-28T00:46:16.141Z,20.1
2019-03-28T00:47:05.959Z,20.1
2019-03-28T00:47:55.988Z,20.2
2019-03-28T00:48:46.570Z,20.2
2019-03-28T00:49:36.656Z,20.3
2019-03-28T00:50:26.710Z,20.4
2019-03-28T00:51:16.568Z,20.4
2019-03-28T00:52:06.637Z,20.6
2019-03-28T00:52:56.936Z,21.4
2019-03-28T00:53:47.063Z,21.8
2019-03-28T00:54:36.540Z,22.1
2019-03-28T00:55:27.156Z,22.3
2019-03-28T00:56:16.872Z,22.3
2019-03-28T00:57:07.383Z,22.3
2019-03-28T00:57:56.544Z,22.2
2019-03-28T00:58:46.548Z,22.1
2019-03-28T00:59:36.923Z,22
2019-03-28T01:00:25.903Z,21.9
2019-03-28T01:01:17.033Z,21.8
2019-03-28T01:02:06.855Z,21.8
2019-03-28T01:02:56.636Z,21.7
2019-03-28T01:03:47.533Z,21.6
2019-03-28T01:04:36.990Z,21.6
2019-03-28T01:05:27.388Z,21.4
2019-03-28T01:06:16.850Z,21.4
2019-03-28T01:07:06.722Z,21.3
2019-03-28T01:08:47.643Z,21.1
2019-03-28T01:09:38.005Z,21
2019-03-28T01:10:28.652Z,20.9
2019-03-28T01:11:18.881Z,20.8
2019-03-28T01:12:08.272Z,20.8
2019-03-28T01:12:58.614Z,20.8
2019-03-28T01:13:49.039Z,20.7
2019-03-28T01:14:38.117Z,20.6
2019-03-28T01:15:28.337Z,20.6
2019-03-28T01:16:18.539Z,20.5
2019-03-28T01:17:08.331Z,20.4
2019-03-28T01:17:59.482Z,20.4
2019-03-28T01:18:49.169Z,20.3
2019-03-28T01:19:39.047Z,20.3
2019-03-28T01:20:28.765Z,20.2
2019-03-28T01:21:19.311Z,20.2
2019-03-28T01:22:09.289Z,20.1
2019-03-28T01:22:59.633Z,20
2019-03-28T01:23:49.687Z,19.9
2019-03-28T01:24:39.224Z,19.9
2019-03-28T01:25:29.644Z,19.9
2019-03-28T01:26:19.933Z,19.8
2019-03-28T01:27:09.096Z,19.8
2019-03-28T01:27:59.887Z,19.8
2019-03-28T01:28:50.097Z,19.8
2019-03-28T01:29:39.735Z,19.8
2019-03-28T01:30:29.390Z,19.8
2019-03-28T01:31:18.679Z,19.7
2019-03-28T01:32:10.443Z,19.7
2019-03-28T01:33:00.393Z,19.7
2019-03-28T01:33:50.111Z,19.6
2019-03-28T01:34:40.390Z,19.6
2019-03-28T01:35:30.363Z,19.6
2019-03-28T01:36:20.540Z,19.6
2019-03-28T01:37:10.439Z,19.6
2019-03-28T01:38:00.186Z,19.7
2019-03-28T01:38:50.723Z,19.7
2019-03-28T01:39:40.931Z,19.7
2019-03-28T01:40:30.458Z,19.7
2019-03-28T01:41:21.078Z,19.8
2019-03-28T01:42:11.478Z,19.8
2019-03-28T01:43:00.413Z,19.9
2019-03-28T01:43:50.107Z,19.9
2019-03-28T01:44:39.845Z,19.9
2019-03-28T01:45:30.483Z,20
2019-03-28T01:46:20.496Z,20
2019-03-28T01:47:10.838Z,20
2019-03-28T01:47:59.495Z,20.4
2019-03-28T01:48:50.998Z,20.7
2019-03-28T01:49:40.472Z,20.9
2019-03-28T01:50:30.512Z,20.9
2019-03-28T01:51:20.632Z,20.9
2019-03-28T01:52:14.400Z,20.9
2019-03-28T01:53:01.539Z,20.8
2019-03-28T01:53:49.997Z,20.8
2019-03-28T01:54:40.555Z,20.7
2019-03-28T01:55:31.405Z,20.6
2019-03-28T01:56:21.484Z,20.5
2019-03-28T01:57:21.617Z,20.4
2019-03-28T01:58:01.037Z,20.4
2019-03-28T01:58:51.675Z,20.3
2019-03-28T01:59:41.717Z,20.3
2019-03-28T02:00:31.777Z,20.2
2019-03-28T02:01:21.607Z,20.1
2019-03-28T02:02:11.340Z,20.1
2019-03-28T02:03:02.271Z,20.1
2019-03-28T02:03:51.525Z,20
2019-03-28T02:04:42.160Z,20
2019-03-28T02:05:31.922Z,19.9
2019-03-28T02:06:21.357Z,19.9
2019-03-28T02:07:11.730Z,19.9
2019-03-28T02:08:04.701Z,19.8
2019-03-28T02:08:52.194Z,19.7
2019-03-28T02:09:42.789Z,19.6
2019-03-28T02:10:32.221Z,19.6
2019-03-28T02:11:22.684Z,19.6
2019-03-28T02:12:13.065Z,19.6
2019-03-28T02:13:03.336Z,19.7
2019-03-28T02:13:52.781Z,19.7
2019-03-28T02:14:43.636Z,19.7
2019-03-28T02:15:33.599Z,19.8
2019-03-28T02:16:23.321Z,19.8
2019-03-28T02:17:12.624Z,19.7
2019-03-28T02:18:02.218Z,19.7
2019-03-28T02:18:51.714Z,19.6
2019-03-28T02:19:43.442Z,19.6
2019-03-28T02:20:33.506Z,19.5
2019-03-28T02:21:23.341Z,19.4
2019-03-28T02:22:13.169Z,19.4
2019-03-28T02:23:03.216Z,19.5
2019-03-28T02:23:52.171Z,19.5
2019-03-28T02:24:42.286Z,19.6
2019-03-28T02:25:33.103Z,19.6
2019-03-28T02:26:22.809Z,19.6
2019-03-28T02:27:27.515Z,19.6
2019-03-28T02:28:03.044Z,19.6
2019-03-28T02:28:53.840Z,19.6
2019-03-28T02:29:42.830Z,19.6
2019-03-28T02:30:35.441Z,19.6
2019-03-28T02:31:25.680Z,19.6
2019-03-28T02:32:14.168Z,19.6
2019-03-28T02:33:04.938Z,19.6
2019-03-28T02:33:53.488Z,19.6
2019-03-28T02:34:43.840Z,19.6
2019-03-28T02:35:33.293Z,19.6
2019-03-28T02:36:24.550Z,19.7
2019-03-28T02:37:14.363Z,19.7
2019-03-28T02:38:04.523Z,19.7
2019-03-28T02:38:54.971Z,19.7
2019-03-28T02:39:44.473Z,19.8
2019-03-28T02:40:34.562Z,19.8
2019-03-28T02:41:24.694Z,19.9
2019-03-28T02:42:14.395Z,19.9
2019-03-28T02:43:04.535Z,19.9
2019-03-28T02:43:55.080Z,19.9
2019-03-28T02:44:46.073Z,20.1
2019-03-28T02:45:36.767Z,20.1
2019-03-28T02:46:25.622Z,20.2
2019-03-28T02:47:14.839Z,20.2
2019-03-28T02:48:05.673Z,20.2
2019-03-28T02:48:57.269Z,20.2
2019-03-28T02:49:44.732Z,20.1
2019-03-28T02:50:35.561Z,20.1
2019-03-28T02:51:25.931Z,20.1
2019-03-28T02:52:15.327Z,20
2019-03-28T02:53:04.624Z,19.9
2019-03-28T02:53:56.028Z,19.8
2019-03-28T02:54:46.119Z,19.7
2019-03-28T02:55:35.349Z,19.6
2019-03-28T02:56:26.561Z,19.6
2019-03-28T02:57:16.706Z,19.7
2019-03-28T02:58:05.764Z,19.7
2019-03-28T02:58:55.832Z,19.8
2019-03-28T02:59:45.969Z,19.8
2019-03-28T03:00:35.688Z,19.8
2019-03-28T03:01:30.706Z,19.8
2019-03-28T03:02:17.206Z,19.8
2019-03-28T03:03:06.539Z,19.8
2019-03-28T03:03:55.966Z,19.8
2019-03-28T03:07:26.542Z,19.6
2019-03-28T03:08:18.004Z,19.7
2019-03-28T03:09:08.012Z,19.8
2019-03-28T03:09:58.866Z,19.8
2019-03-28T03:10:48.146Z,19.9
2019-03-28T03:11:37.664Z,20
2019-03-28T03:12:28.303Z,20
2019-03-28T03:13:17.750Z,20
2019-03-28T03:14:07.744Z,20
2019-03-28T03:14:57.528Z,20
2019-03-28T03:15:48.148Z,20
2019-03-28T03:16:37.627Z,19.9
2019-03-28T03:17:27.151Z,19.9
2019-03-28T03:18:22.910Z,19.9
2019-03-28T03:19:08.805Z,19.9
2019-03-28T03:19:58.633Z,19.9
2019-03-28T03:20:49.026Z,19.9
2019-03-28T03:21:39.935Z,19.9
2019-03-28T03:22:28.703Z,19.8
2019-03-28T03:23:17.753Z,19.8
2019-03-28T03:24:07.793Z,19.8
2019-03-28T03:24:58.668Z,19.8
2019-03-28T03:25:48.128Z,19.8
2019-03-28T03:26:38.114Z,19.8
2019-03-28T03:27:28.727Z,19.7
2019-03-28T03:28:18.444Z,19.7
2019-03-28T03:29:08.960Z,19.6
2019-03-28T03:29:58.620Z,19.7
2019-03-28T03:30:49.137Z,19.7
2019-03-28T03:31:39.288Z,19.7
2019-03-28T03:32:29.408Z,19.7
2019-03-28T03:33:19.929Z,19.8
2019-03-28T03:34:12.215Z,19.8
2019-03-28T03:35:03.293Z,19.8
2019-03-28T03:35:48.777Z,19.8
2019-03-28T03:36:38.915Z,19.8
2019-03-28T03:37:29.715Z,19.8
2019-03-28T03:38:18.985Z,19.8
2019-03-28T03:39:08.847Z,19.8
2019-03-28T03:39:59.494Z,19.7
2019-03-28T03:40:49.209Z,19.6
2019-03-28T03:41:39.330Z,19.6
2019-03-28T03:42:29.870Z,19.6
2019-03-28T03:43:19.872Z,19.6
2019-03-28T03:44:10.291Z,19.6
2019-03-28T03:44:59.719Z,19.7
2019-03-28T03:45:50.324Z,19.7
2019-03-28T03:46:39.562Z,19.7
2019-03-28T03:47:29.644Z,19.6
2019-03-28T03:48:20.604Z,19.6
2019-03-28T03:49:10.629Z,19.5
2019-03-28T03:50:01.839Z,19.4
2019-03-28T03:50:51.185Z,19.4
2019-03-28T03:51:41.223Z,19.5
2019-03-28T03:52:30.242Z,19.6
2019-03-28T03:53:20.279Z,19.6
2019-03-28T03:54:10.363Z,19.8
2019-03-28T03:55:00.776Z,19.8
2019-03-28T03:55:50.735Z,19.9
2019-03-28T03:56:41.148Z,19.9
2019-03-28T03:57:30.912Z,20
2019-03-28T03:58:28.275Z,20.1
2019-03-28T03:59:11.646Z,20
2019-03-28T04:00:00.585Z,19.9
2019-03-28T04:00:51.213Z,19.8
2019-03-28T04:01:40.933Z,19.8
2019-03-28T04:02:30.156Z,19.8
2019-03-28T04:03:20.456Z,19.8
2019-03-28T04:04:11.471Z,19.9
2019-03-28T04:05:06.552Z,20
2019-03-28T04:05:51.743Z,20.1
2019-03-28T04:06:40.652Z,20.1
2019-03-28T04:07:31.133Z,20.2
2019-03-28T04:08:22.181Z,20.2
2019-03-28T04:09:12.008Z,20.1
2019-03-28T04:10:02.173Z,20.1
2019-03-28T04:10:51.848Z,20.1
2019-03-28T04:11:41.810Z,20.1
2019-03-28T04:12:32.268Z,20.1
2019-03-28T04:13:21.235Z,20.1
2019-03-28T04:14:12.473Z,20
2019-03-28T04:15:02.531Z,20.1
2019-03-28T04:15:51.977Z,20
2019-03-28T04:16:42.553Z,20
2019-03-28T04:17:32.307Z,20
2019-03-28T04:18:27.918Z,20.1
2019-03-28T04:19:12.315Z,20.1
2019-03-28T04:20:03.987Z,20.1
2019-03-28T04:20:53.684Z,20.1
2019-03-28T04:21:43.628Z,20.1
2019-03-28T04:22:32.722Z,20.1
2019-03-28T04:23:22.580Z,20.1
2019-03-28T04:24:13.180Z,19.8
2019-03-28T04:25:03.616Z,19.6
2019-03-28T04:25:53.077Z,19.4
2019-03-28T04:26:41.848Z,19.3
2019-03-28T04:27:32.250Z,19.3
2019-03-28T04:28:42.896Z,19.3
2019-03-28T04:29:13.247Z,19.4
2019-03-28T04:30:04.515Z,19.4
2019-03-28T04:30:52.826Z,19.4
2019-03-28T04:31:43.127Z,19.4
2019-03-28T04:32:33.417Z,19.4
2019-03-28T04:33:23.837Z,19.4
2019-03-28T04:34:19.341Z,19.3
2019-03-28T04:35:04.782Z,19.3
2019-03-28T04:35:54.727Z,19.3
2019-03-28T04:36:44.764Z,19.4
2019-03-28T04:37:34.665Z,19.6
2019-03-28T04:38:25.129Z,19.7
2019-03-28T04:39:13.597Z,19.8
2019-03-28T04:40:03.896Z,19.8
2019-03-28T04:40:54.049Z,19.9
2019-03-28T04:41:44.084Z,20
2019-03-28T04:42:33.523Z,20
2019-03-28T04:43:23.731Z,20.1
2019-03-28T04:44:13.778Z,20
2019-03-28T04:45:07.881Z,19.9
2019-03-28T04:45:54.255Z,19.8
2019-03-28T04:46:44.864Z,19.9
2019-03-28T04:47:34.698Z,19.9
2019-03-28T04:48:23.903Z,20
2019-03-28T04:49:18.533Z,20.1
2019-03-28T04:50:04.441Z,20.2
2019-03-28T04:50:54.539Z,20.3
2019-03-28T04:51:44.387Z,20.3
2019-03-28T04:52:38.213Z,20.3
2019-03-28T04:53:24.266Z,20.3
2019-03-28T04:54:17.688Z,20.3
2019-03-28T04:55:05.298Z,20.2
2019-03-28T04:55:55.207Z,20.2
2019-03-28T04:56:45.997Z,20.1
2019-03-28T04:57:36.342Z,20.1
2019-03-28T04:58:29.850Z,20.1
2019-03-28T04:59:16.153Z,20.1
2019-03-28T05:00:04.469Z,20.1
2019-03-28T05:00:55.286Z,20.1
2019-03-28T05:02:03.535Z,20.1
2019-03-28T05:02:36.747Z,20.1
2019-03-28T05:03:26.415Z,20.1
2019-03-28T05:04:16.791Z,20.1
2019-03-28T05:05:06.938Z,20.1
2019-03-28T05:05:55.183Z,20.1
2019-03-28T05:06:46.919Z,20.1
2019-03-28T05:07:34.766Z,20.1
2019-03-28T05:08:24.780Z,19.8
2019-03-28T05:09:15.965Z,19.4
2019-03-28T05:10:05.647Z,19.2
2019-03-28T05:10:56.352Z,19.1
2019-03-28T05:11:45.397Z,19.1
2019-03-28T05:12:36.449Z,19.1
2019-03-28T05:13:27.497Z,19.1
2019-03-28T05:14:16.827Z,19.1
2019-03-28T05:15:07.509Z,19.2
2019-03-28T05:15:57.277Z,19.2
2019-03-28T05:16:46.460Z,19.2
2019-03-28T05:17:36.254Z,19.2
2019-03-28T05:18:26.579Z,19.1
2019-03-28T05:19:16.682Z,19
2019-03-28T05:20:06.931Z,19.1
2019-03-28T05:20:57.034Z,19.1
2019-03-28T05:21:46.654Z,19.3
2019-03-28T05:22:36.911Z,19.4
2019-03-28T05:23:27.502Z,19.6
2019-03-28T05:24:16.753Z,19.7
2019-03-28T05:25:08.194Z,19.8
2019-03-28T05:25:58.198Z,19.9
2019-03-28T05:26:47.902Z,19.9
2019-03-28T05:27:37.821Z,19.9
2019-03-28T05:28:28.355Z,19.9
2019-03-28T05:29:17.656Z,19.9
2019-03-28T05:30:10.181Z,19.9
2019-03-28T05:30:57.581Z,19.9
2019-03-28T05:31:47.066Z,19.9
2019-03-28T05:32:37.143Z,19.9
2019-03-28T05:33:27.928Z,19.9
2019-03-28T05:34:18.253Z,19.8
2019-03-28T05:35:08.960Z,19.8
2019-03-28T05:35:58.544Z,19.9
2019-03-28T05:36:52.466Z,19.9
2019-03-28T05:37:38.438Z,19.9
2019-03-28T05:38:27.342Z,19.9
2019-03-28T05:39:17.899Z,19.9
2019-03-28T05:40:08.623Z,19.9
2019-03-28T05:40:57.973Z,19.9
2019-03-28T05:41:46.867Z,19.9
2019-03-28T05:42:38.646Z,19.9
2019-03-28T05:43:28.126Z,19.4
2019-03-28T05:44:17.915Z,19.1
2019-03-28T05:45:08.505Z,18.9
2019-03-28T05:45:58.620Z,18.8
2019-03-28T05:46:48.916Z,18.8
2019-03-28T05:47:39.404Z,18.9
2019-03-28T05:48:28.009Z,18.9
2019-03-28T05:49:18.823Z,18.9
2019-03-28T05:50:09.215Z,18.9
2019-03-28T05:50:58.568Z,18.9
2019-03-28T05:51:49.005Z,18.9
2019-03-28T05:52:38.152Z,18.9
2019-03-28T05:53:29.878Z,18.8
2019-03-28T05:54:18.197Z,18.8
2019-03-28T05:55:12.417Z,18.9
2019-03-28T05:55:58.570Z,19
2019-03-28T05:56:49.626Z,19.1
2019-03-28T05:57:39.496Z,19.3
2019-03-28T05:58:29.504Z,19.4
2019-03-28T05:59:21.894Z,19.6
2019-03-28T06:00:09.295Z,19.6
2019-03-28T06:01:00.426Z,19.7
2019-03-28T06:01:49.959Z,19.8
2019-03-28T06:02:40.094Z,19.9
2019-03-28T06:05:28.326Z,19.9
2019-03-28T06:06:17.383Z,19.9
2019-03-28T06:07:21.765Z,19.9
2019-03-28T06:07:56.921Z,19.9
2019-03-28T06:09:02.761Z,19.9
2019-03-28T06:09:52.423Z,19.8
2019-03-28T06:10:27.131Z,19.8
2019-03-28T06:11:17.904Z,19.8
2019-03-28T06:12:07.544Z,19.8
2019-03-28T06:13:12.039Z,19.8
2019-03-28T06:14:02.886Z,19.8
2019-03-28T06:14:38.011Z,19.7
2019-03-28T06:15:27.848Z,19.6
2019-03-28T06:16:17.568Z,19.6
2019-03-28T06:17:21.434Z,19.6
2019-03-28T06:17:59.629Z,19.6
2019-03-28T06:18:49.265Z,19.6
2019-03-28T06:19:38.811Z,19.6
2019-03-28T06:20:27.318Z,19.6
2019-03-28T06:21:18.383Z,19.6
2019-03-28T06:22:08.754Z,19.6
2019-03-28T06:22:58.043Z,19.6
2019-03-28T06:23:48.597Z,19.6
2019-03-28T06:24:39.240Z,19.6
2019-03-28T06:25:31.480Z,19.3
2019-03-28T06:26:19.003Z,18.9
2019-03-28T06:27:08.990Z,18.6
2019-03-28T06:27:58.278Z,18.6
2019-03-28T06:28:47.245Z,18.5
2019-03-28T06:29:38.280Z,18.6
2019-03-28T06:30:28.559Z,18.6
2019-03-28T06:32:10.217Z,18.8
2019-03-28T06:33:02.196Z,18.8
2019-03-28T06:33:48.548Z,18.8
2019-03-28T06:34:38.627Z,18.8
2019-03-28T06:35:31.775Z,18.8
2019-03-28T06:36:20.110Z,18.8
2019-03-28T06:37:10.081Z,18.8
2019-03-28T06:38:49.171Z,18.6
2019-03-28T06:39:42.215Z,18.5
2019-03-28T06:40:29.850Z,18.4
2019-03-28T06:41:19.149Z,18.4
2019-03-28T06:42:09.246Z,18.3
2019-03-28T06:42:59.552Z,18.3
2019-03-28T06:43:50.529Z,18.1
2019-03-28T06:44:39.632Z,18.1
2019-03-28T06:45:29.702Z,18.1
2019-03-28T06:46:19.792Z,18
2019-03-28T06:47:08.955Z,18
2019-03-28T06:48:00.165Z,17.9
2019-03-28T06:48:48.608Z,17.9
2019-03-28T06:49:39.539Z,17.9
2019-03-28T06:50:29.849Z,17.8
2019-03-28T06:51:20.079Z,17.8
2019-03-28T06:52:10.171Z,17.8
2019-03-28T06:52:59.968Z,17.8
2019-03-28T06:53:50.486Z,17.8
2019-03-28T06:54:40.468Z,17.8
2019-03-28T06:55:36.728Z,17.8
2019-03-28T06:56:21.767Z,17.8
2019-03-28T06:57:09.757Z,17.9
2019-03-28T06:58:00.404Z,18
2019-03-28T06:58:50.337Z,18.1
2019-03-28T06:59:47.108Z,18.1
2019-03-28T07:00:30.523Z,18.2
2019-03-28T07:01:21.038Z,18.3
2019-03-28T07:02:10.530Z,18.4
2019-03-28T07:02:59.898Z,18.4
2019-03-28T07:06:17.158Z,18.4
2019-03-28T07:07:07.640Z,18.3
2019-03-28T07:07:56.770Z,18.3
2019-03-28T07:08:46.865Z,18.1
2019-03-28T07:09:37.565Z,18.2
2019-03-28T07:10:27.357Z,18.3
2019-03-28T07:11:17.173Z,18.3
2019-03-28T07:12:05.954Z,18.4
2019-03-28T07:12:57.025Z,18.4
2019-03-28T07:13:47.102Z,18.5
2019-03-28T07:14:37.778Z,18.5
2019-03-28T07:15:27.877Z,18.5
2019-03-28T07:16:17.042Z,18.4
2019-03-28T07:17:07.647Z,18.4
2019-03-28T07:17:57.501Z,18.4
2019-03-28T07:18:47.758Z,18.3
2019-03-28T07:19:37.904Z,18.3
2019-03-28T07:20:28.020Z,18.2
2019-03-28T07:21:18.236Z,18.2
2019-03-28T07:22:07.357Z,18.1
2019-03-28T07:22:57.744Z,18.1
2019-03-28T07:23:48.365Z,18
2019-03-28T07:24:38.116Z,18
2019-03-28T07:25:31.212Z,17.9
2019-03-28T07:26:18.225Z,17.9
2019-03-28T07:27:07.793Z,17.9
2019-03-28T07:27:57.871Z,17.8
2019-03-28T07:28:47.649Z,17.8
2019-03-28T07:29:54.122Z,17.8
2019-03-28T07:30:28.951Z,17.8
2019-03-28T07:31:18.859Z,17.8
2019-03-28T07:32:08.823Z,17.8
2019-03-28T07:32:58.533Z,17.8
2019-03-28T07:33:48.829Z,17.7
2019-03-28T07:34:37.610Z,17.7
2019-03-28T07:35:27.931Z,17.7
2019-03-28T07:36:18.444Z,17.7
2019-03-28T07:37:08.869Z,17.6
2019-03-28T07:37:58.396Z,17.6
2019-03-28T07:38:48.619Z,17.6
2019-03-28T07:39:38.835Z,17.6
2019-03-28T07:40:29.967Z,17.6
2019-03-28T07:41:22.176Z,17.6
2019-03-28T07:42:09.070Z,17.5
2019-03-28T07:42:59.609Z,17.6
2019-03-28T07:43:49.953Z,17.6
2019-03-28T07:44:43.061Z,17.6
2019-03-28T07:45:34.098Z,17.6
2019-03-28T07:46:18.956Z,17.7
2019-03-28T07:47:09.721Z,17.8
2019-03-28T07:48:00.498Z,17.9
2019-03-28T07:48:50.198Z,17.9
2019-03-28T07:49:43.067Z,17.8
2019-03-28T07:50:33.937Z,17.8
2019-03-28T07:51:20.073Z,17.8
2019-03-28T07:52:11.113Z,17.8
2019-03-28T07:53:01.375Z,17.9
2019-03-28T07:53:51.762Z,18.1
2019-03-28T07:54:41.292Z,18.1
2019-03-28T07:55:31.512Z,18.3
2019-03-28T07:56:20.657Z,18.3
2019-03-28T07:57:11.094Z,18.4
2019-03-28T07:58:00.180Z,18.4
2019-03-28T07:58:53.622Z,18.4
2019-03-28T07:59:44.480Z,18.4
2019-03-28T08:00:30.927Z,18.4
2019-03-28T08:01:24.781Z,18.4
2019-03-28T08:02:10.030Z,18.3
2019-03-28T08:03:04.669Z,18.3
2019-03-28T08:03:51.539Z,18.3
2019-03-28T08:04:40.979Z,18.2
2019-03-28T08:05:31.117Z,18.1
2019-03-28T08:06:23.686Z,18.1
2019-03-28T08:07:10.204Z,18
2019-03-28T08:08:01.001Z,17.9
2019-03-28T08:08:53.326Z,17.9
2019-03-28T08:09:46.093Z,17.8
2019-03-28T08:10:30.905Z,17.8
2019-03-28T08:11:23.295Z,17.7
2019-03-28T08:12:28.718Z,17.6
2019-03-28T08:13:01.832Z,17.6
2019-03-28T08:13:51.666Z,17.6
2019-03-28T08:14:42.111Z,17.5
2019-03-28T08:15:32.297Z,17.4
2019-03-28T08:16:21.036Z,17.4
2019-03-28T08:17:11.948Z,17.4
2019-03-28T08:18:02.478Z,17.3
2019-03-28T08:18:53.036Z,17.3
2019-03-28T08:19:46.515Z,17.3
2019-03-28T08:20:32.124Z,17.3
2019-03-28T08:21:22.533Z,17.2
2019-03-28T08:22:11.205Z,17.2
2019-03-28T08:23:01.810Z,17.1
2019-03-28T08:23:52.408Z,17.2
2019-03-28T08:24:42.188Z,17.2
2019-03-28T08:25:32.625Z,17.2
2019-03-28T08:26:22.583Z,17.3
2019-03-28T08:27:12.467Z,17.3
2019-03-28T08:28:05.685Z,17.4
2019-03-28T08:28:52.783Z,17.6
2019-03-28T08:29:42.868Z,17.5
2019-03-28T08:30:32.624Z,17.4
2019-03-28T08:31:24.112Z,17.4
2019-03-28T08:32:17.098Z,17.4
2019-03-28T08:33:03.872Z,17.6
2019-03-28T08:33:53.420Z,17.6
2019-03-28T08:34:43.188Z,17.8
2019-03-28T08:35:32.797Z,17.8
2019-03-28T08:36:23.067Z,17.9
2019-03-28T08:37:12.940Z,17.9
2019-03-28T08:38:03.497Z,18
2019-03-28T08:38:53.520Z,18
2019-03-28T08:39:46.966Z,18.1
2019-03-28T08:40:32.930Z,18.1
2019-03-28T08:41:24.219Z,18.1
2019-03-28T08:42:12.680Z,18
2019-03-28T08:43:03.292Z,18
2019-03-28T08:43:53.112Z,17.9
2019-03-28T08:44:44.373Z,17.9
2019-03-28T08:45:34.355Z,17.9
2019-03-28T08:46:23.502Z,17.8
2019-03-28T08:47:15.158Z,17.8
2019-03-28T08:48:03.917Z,17.7
2019-03-28T08:48:53.997Z,17.6
2019-03-28T08:49:44.049Z,17.6
2019-03-28T08:50:34.357Z,17.6
2019-03-28T08:51:27.685Z,17.5
2019-03-28T08:52:17.894Z,17.4
2019-03-28T08:53:03.561Z,17.4
2019-03-28T08:53:53.819Z,17.4
2019-03-28T08:54:44.085Z,17.3
2019-03-28T08:55:33.784Z,17.3
2019-03-28T08:56:23.749Z,17.3
2019-03-28T08:57:16.161Z,17.3
2019-03-28T08:58:04.718Z,17.2
2019-03-28T08:58:54.462Z,17.1
2019-03-28T08:59:44.451Z,17.1
2019-03-28T09:01:01.230Z,17.1
2019-03-28T09:01:24.929Z,17.1
2019-03-28T09:02:15.256Z,17.1
2019-03-28T09:03:04.480Z,17.1
2019-03-28T09:03:58.276Z,17.1
2019-03-28T09:04:45.356Z,17.2
2019-03-28T09:05:35.444Z,17.3
2019-03-28T09:06:27.098Z,17.4
2019-03-28T09:07:18.967Z,17.4
2019-03-28T09:08:06.092Z,17.6
2019-03-28T09:08:55.325Z,17.6
2019-03-28T09:09:46.188Z,17.4
2019-03-28T09:10:35.496Z,17.3
2019-03-28T09:11:29.148Z,17.3
2019-03-28T09:12:15.909Z,17.3
2019-03-28T09:13:06.201Z,17.4
2019-03-28T09:13:56.210Z,17.5
2019-03-28T09:14:46.414Z,17.6
2019-03-28T09:15:51.258Z,17.7
2019-03-28T09:16:26.191Z,17.8
2019-03-28T09:17:15.135Z,17.8
2019-03-28T09:18:08.781Z,17.8
2019-03-28T09:18:56.173Z,17.8
2019-03-28T09:19:48.112Z,17.8
2019-03-28T09:20:36.160Z,17.8
2019-03-28T09:21:26.598Z,17.8
2019-03-28T09:22:16.258Z,17.8
2019-03-28T09:23:06.684Z,17.8
2019-03-28T09:23:56.682Z,17.8
2019-03-28T09:24:46.766Z,17.8
2019-03-28T09:25:36.515Z,17.7
2019-03-28T09:26:27.067Z,17.6
2019-03-28T09:27:17.249Z,17.6
2019-03-28T09:28:06.132Z,17.6
2019-03-28T09:28:57.371Z,17.5
2019-03-28T09:29:45.799Z,17.4
2019-03-28T09:30:54.285Z,17.4
2019-03-28T09:31:29.167Z,17.3
2019-03-28T09:32:16.742Z,17.3
2019-03-28T09:33:06.185Z,17.3
2019-03-28T09:33:56.514Z,17.3
2019-03-28T09:34:46.984Z,17.3
2019-03-28T09:35:39.076Z,17.2
2019-03-28T09:36:28.354Z,17.2
2019-03-28T09:37:18.291Z,17.1
2019-03-28T09:38:07.725Z,17.1
2019-03-28T09:38:57.489Z,17.1
2019-03-28T09:39:48.099Z,17.1
2019-03-28T09:40:38.062Z,17.1
2019-03-28T09:41:27.755Z,17.1
2019-03-28T09:42:18.588Z,17.1
2019-03-28T09:43:08.172Z,17.2
2019-03-28T09:44:05.484Z,17.3
2019-03-28T09:44:48.747Z,17.3
2019-03-28T09:45:39.402Z,17.4
2019-03-28T09:46:27.526Z,17.4
2019-03-28T09:47:17.001Z,17.4
2019-03-28T09:48:12.233Z,17.2
2019-03-28T09:48:58.086Z,17.1
2019-03-28T09:49:48.371Z,17.2
2019-03-28T09:50:38.367Z,17.3
2019-03-28T09:51:28.105Z,17.4
2019-03-28T09:52:18.986Z,17.5
2019-03-28T09:53:10.078Z,17.6
2019-03-28T09:53:58.973Z,17.8
2019-03-28T09:54:48.309Z,17.8
2019-03-28T09:55:39.071Z,17.9
2019-03-28T09:56:29.086Z,17.9
2019-03-28T09:57:18.508Z,17.9
2019-03-28T09:58:09.457Z,17.9
2019-03-28T09:59:02.521Z,17.9
2019-03-28T09:59:48.989Z,17.9
2019-03-28T10:00:43.778Z,17.9
2019-03-28T10:01:29.375Z,17.8
2019-03-28T10:02:19.405Z,17.8
2019-03-28T10:03:08.831Z,17.8
2019-03-28T10:03:59.725Z,17.7
2019-03-28T10:06:26.607Z,17.6
2019-03-28T10:07:16.681Z,17.5
2019-03-28T10:08:06.377Z,17.4
2019-03-28T10:08:56.350Z,17.4
2019-03-28T10:09:50.768Z,17.4
2019-03-28T10:10:37.155Z,17.4
2019-03-28T10:11:26.180Z,17.3
2019-03-28T10:12:16.826Z,17.3
2019-03-28T10:13:07.360Z,17.3
2019-03-28T10:13:56.882Z,17.3
2019-03-28T10:14:47.725Z,17.3
2019-03-28T10:15:41.271Z,17.2
2019-03-28T10:16:27.938Z,17.2
2019-03-28T10:17:17.211Z,17.2
2019-03-28T10:18:07.488Z,17.1
2019-03-28T10:18:57.768Z,17.2
2019-03-28T10:19:49.218Z,17.2
2019-03-28T10:20:37.881Z,17.3
2019-03-28T10:21:27.966Z,17.4
2019-03-28T10:22:18.338Z,17.4
2019-03-28T10:23:08.345Z,17.5
2019-03-28T10:23:57.681Z,17.6
2019-03-28T10:24:48.446Z,17.6
2019-03-28T10:25:37.825Z,17.4
2019-03-28T10:26:27.998Z,17.2
2019-03-28T10:27:21.612Z,17.2
2019-03-28T10:28:08.267Z,17.3
2019-03-28T10:28:58.003Z,17.3
2019-03-28T10:29:47.506Z,17.4
2019-03-28T10:30:37.845Z,17.4
2019-03-28T10:31:28.443Z,17.6
2019-03-28T10:32:33.424Z,17.6
2019-03-28T10:33:08.152Z,17.7
2019-03-28T10:33:59.363Z,17.7
2019-03-28T10:34:47.760Z,17.8
2019-03-28T10:35:38.194Z,17.8
2019-03-28T10:36:31.667Z,17.8
2019-03-28T10:37:17.832Z,17.8
2019-03-28T10:38:08.956Z,17.8
2019-03-28T10:38:58.425Z,17.8
2019-03-28T10:39:48.612Z,17.7
2019-03-28T10:40:39.019Z,17.7
2019-03-28T10:41:34.162Z,17.6
2019-03-28T10:42:18.950Z,17.6
2019-03-28T10:43:09.082Z,17.6
2019-03-28T10:43:58.552Z,17.5
2019-03-28T10:44:49.406Z,17.4
2019-03-28T10:45:42.837Z,17.4
2019-03-28T10:46:29.240Z,17.4
2019-03-28T10:47:18.916Z,17.3
2019-03-28T10:48:09.643Z,17.3
2019-03-28T10:49:03.636Z,17.3
2019-03-28T10:49:50.636Z,17.3
2019-03-28T10:50:54.899Z,17.2
2019-03-28T10:51:30.376Z,17.2
2019-03-28T10:52:21.914Z,17.2
2019-03-28T10:53:09.760Z,17.2
2019-03-28T10:54:00.194Z,17.1
2019-03-28T10:54:50.601Z,17.2
2019-03-28T10:55:39.754Z,17.2
2019-03-28T10:56:32.909Z,17.2
2019-03-28T10:57:39.818Z,17.2
2019-03-28T10:58:27.651Z,17.3
2019-03-28T10:58:59.701Z,17.4
2019-03-28T10:59:50.188Z,17.4
2019-03-28T11:00:39.776Z,17.5
2019-03-28T11:01:59.886Z,17.6
2019-03-28T11:02:22.211Z,17.3
2019-03-28T11:03:12.627Z,17.2
2019-03-28T11:04:01.858Z,17.1
2019-03-28T11:04:51.873Z,17.1
2019-03-28T11:05:42.120Z,17.1
2019-03-28T11:06:31.234Z,17.2
2019-03-28T11:07:21.253Z,17.3
2019-03-28T11:08:11.618Z,17.4
2019-03-28T11:09:00.880Z,17.5
2019-03-28T11:09:51.165Z,17.6
2019-03-28T11:10:41.033Z,17.6
2019-03-28T11:11:32.370Z,17.6
2019-03-28T11:12:21.423Z,17.6
2019-03-28T11:13:15.798Z,17.6
2019-03-28T11:14:01.481Z,17.6
2019-03-28T11:14:55.122Z,17.6
2019-03-28T11:15:40.779Z,17.6
2019-03-28T11:16:32.630Z,17.6
2019-03-28T11:17:22.343Z,17.6
2019-03-28T11:18:12.114Z,17.6
2019-03-28T11:19:02.338Z,17.6
2019-03-28T11:19:56.416Z,17.5
2019-03-28T11:20:46.940Z,17.4